sensor_id;sensor_type;location;lat;lon;timestamp;temperature;humidity
33139;DHT22;19501;50.948;5.316;2024-03-08T00:02:16;6.50;99.90
33139;DHT22;19501;50.948;5.316;2024-03-08T00:04:42;6.60;99.90
33139;DHT22;19501;50.948;5.316;2024-03-08T00:07:08;6.60;99.90
33139;DHT22;19501;50.948;5.316;2024-03-08T00:09:33;6.60;99.90
33139;DHT22;19501;50.948;5.316;2024-03-08T00:12:02;6.60;99.90
33139;DHT22;19501;50.948;5.316;2024-03-08T00:14:27;6.50;99.90
33139;DHT22;19501;50.948;5.316;2024-03-08T00:16:53;6.50;99.90
33139;DHT22;19501;50.948;5.316;2024-03-08T00:19:19;6.50;99.90
33139;DHT22;19501;50.948;5.316;2024-03-08T00:21:45;6.40;99.90
33139;DHT22;19501;50.948;5.316;2024-03-08T00:24:11;6.40;99.90
33139;DHT22;19501;50.948;5.316;2024-03-08T00:26:37;6.30;99.90
33139;DHT22;19501;50.948;5.316;2024-03-08T00:29:03;6.20;99.90
33139;DHT22;19501;50.948;5.316;2024-03-08T00:31:29;6.20;99.90
33139;DHT22;19501;50.948;5.316;2024-03-08T00:33:56;6.20;99.90
33139;DHT22;19501;50.948;5.316;2024-03-08T00:36:22;6.10;99.90
33139;DHT22;19501;50.948;5.316;2024-03-08T00:38:48;6.10;99.90
33139;DHT22;19501;50.948;5.316;2024-03-08T00:41:14;6.10;99.90
33139;DHT22;19501;50.948;5.316;2024-03-08T00:43:39;5.90;99.90
33139;DHT22;19501;50.948;5.316;2024-03-08T00:46:05;5.90;99.90
33139;DHT22;19501;50.948;5.316;2024-03-08T00:48:31;5.90;99.90
33139;DHT22;19501;50.948;5.316;2024-03-08T00:50:57;5.90;99.90
33139;DHT22;19501;50.948;5.316;2024-03-08T00:53:22;5.90;99.90
33139;DHT22;19501;50.948;5.316;2024-03-08T00:55:50;5.90;99.90
33139;DHT22;19501;50.948;5.316;2024-03-08T00:58:20;5.80;99.90
33139;DHT22;19501;50.948;5.316;2024-03-08T01:00:46;5.90;99.90
33139;DHT22;19501;50.948;5.316;2024-03-08T01:03:12;5.90;99.90
33139;DHT22;19501;50.948;5.316;2024-03-08T01:05:38;5.90;99.90
33139;DHT22;19501;50.948;5.316;2024-03-08T01:08:03;5.80;99.90
33139;DHT22;19501;50.948;5.316;2024-03-08T01:10:30;5.70;99.90
33139;DHT22;19501;50.948;5.316;2024-03-08T01:12:56;5.80;99.90
33139;DHT22;19501;50.948;5.316;2024-03-08T01:15:23;5.90;99.90
33139;DHT22;19501;50.948;5.316;2024-03-08T01:17:48;5.70;99.90
33139;DHT22;19501;50.948;5.316;2024-03-08T01:20:16;5.70;99.90
33139;DHT22;19501;50.948;5.316;2024-03-08T01:22:43;5.70;99.90
33139;DHT22;19501;50.948;5.316;2024-03-08T01:25:11;5.70;99.90
33139;DHT22;19501;50.948;5.316;2024-03-08T01:27:37;5.70;99.90
33139;DHT22;19501;50.948;5.316;2024-03-08T01:30:03;5.70;99.90
33139;DHT22;19501;50.948;5.316;2024-03-08T01:32:29;5.60;99.90
33139;DHT22;19501;50.948;5.316;2024-03-08T01:34:54;5.50;99.90
33139;DHT22;19501;50.948;5.316;2024-03-08T01:37:20;5.50;99.90
33139;DHT22;19501;50.948;5.316;2024-03-08T01:39:46;5.50;99.90
33139;DHT22;19501;50.948;5.316;2024-03-08T01:42:12;5.50;99.90
33139;DHT22;19501;50.948;5.316;2024-03-08T01:44:40;5.40;99.90
33139;DHT22;19501;50.948;5.316;2024-03-08T01:47:06;5.30;99.90
33139;DHT22;19501;50.948;5.316;2024-03-08T01:49:32;5.30;99.90
33139;DHT22;19501;50.948;5.316;2024-03-08T01:51:59;5.30;99.90
33139;DHT22;19501;50.948;5.316;2024-03-08T01:54:25;5.30;99.90
33139;DHT22;19501;50.948;5.316;2024-03-08T01:56:52;5.30;99.90
33139;DHT22;19501;50.948;5.316;2024-03-08T01:59:19;5.30;99.90
33139;DHT22;19501;50.948;5.316;2024-03-08T02:01:44;5.20;99.90
33139;DHT22;19501;50.948;5.316;2024-03-08T02:04:10;5.20;99.90
33139;DHT22;19501;50.948;5.316;2024-03-08T02:06:37;5.30;99.90
33139;DHT22;19501;50.948;5.316;2024-03-08T02:09:04;5.30;99.90
33139;DHT22;19501;50.948;5.316;2024-03-08T02:11:34;5.20;99.90
33139;DHT22;19501;50.948;5.316;2024-03-08T02:14:00;5.20;99.90
33139;DHT22;19501;50.948;5.316;2024-03-08T02:16:25;5.10;99.90
33139;DHT22;19501;50.948;5.316;2024-03-08T02:18:51;5.10;99.90
33139;DHT22;19501;50.948;5.316;2024-03-08T02:21:17;5.10;99.90
33139;DHT22;19501;50.948;5.316;2024-03-08T02:23:46;5.10;99.90
33139;DHT22;19501;50.948;5.316;2024-03-08T02:26:14;5.00;99.90
33139;DHT22;19501;50.948;5.316;2024-03-08T02:28:40;5.00;99.90
33139;DHT22;19501;50.948;5.316;2024-03-08T02:31:08;5.00;99.90
33139;DHT22;19501;50.948;5.316;2024-03-08T02:33:34;4.90;99.90
33139;DHT22;19501;50.948;5.316;2024-03-08T02:36:00;4.90;99.90
33139;DHT22;19501;50.948;5.316;2024-03-08T02:38:26;4.90;99.90
33139;DHT22;19501;50.948;5.316;2024-03-08T02:40:55;4.80;99.90
33139;DHT22;19501;50.948;5.316;2024-03-08T02:43:21;4.80;99.90
33139;DHT22;19501;50.948;5.316;2024-03-08T02:45:47;4.80;99.90
33139;DHT22;19501;50.948;5.316;2024-03-08T02:48:16;4.80;99.90
33139;DHT22;19501;50.948;5.316;2024-03-08T02:50:42;4.80;99.90
33139;DHT22;19501;50.948;5.316;2024-03-08T02:53:10;4.70;99.90
33139;DHT22;19501;50.948;5.316;2024-03-08T02:55:41;4.70;99.90
33139;DHT22;19501;50.948;5.316;2024-03-08T02:58:07;4.80;99.90
33139;DHT22;19501;50.948;5.316;2024-03-08T03:00:38;4.80;99.90
33139;DHT22;19501;50.948;5.316;2024-03-08T03:03:05;4.80;99.90
33139;DHT22;19501;50.948;5.316;2024-03-08T03:05:31;4.70;99.90
33139;DHT22;19501;50.948;5.316;2024-03-08T03:07:57;4.70;99.90
33139;DHT22;19501;50.948;5.316;2024-03-08T03:10:25;4.50;99.90
33139;DHT22;19501;50.948;5.316;2024-03-08T03:12:51;4.50;99.90
33139;DHT22;19501;50.948;5.316;2024-03-08T03:15:18;4.50;99.90
33139;DHT22;19501;50.948;5.316;2024-03-08T03:17:50;4.50;99.90
33139;DHT22;19501;50.948;5.316;2024-03-08T03:20:17;4.40;99.90
33139;DHT22;19501;50.948;5.316;2024-03-08T03:22:49;4.40;99.90
33139;DHT22;19501;50.948;5.316;2024-03-08T03:25:20;4.50;99.90
33139;DHT22;19501;50.948;5.316;2024-03-08T03:27:51;4.50;99.90
33139;DHT22;19501;50.948;5.316;2024-03-08T03:30:17;4.40;99.90
33139;DHT22;19501;50.948;5.316;2024-03-08T03:32:51;4.40;99.90
33139;DHT22;19501;50.948;5.316;2024-03-08T03:35:18;4.40;99.90
33139;DHT22;19501;50.948;5.316;2024-03-08T03:37:46;4.40;99.90
33139;DHT22;19501;50.948;5.316;2024-03-08T03:40:27;4.40;99.90
33139;DHT22;19501;50.948;5.316;2024-03-08T03:42:53;4.40;99.90
33139;DHT22;19501;50.948;5.316;2024-03-08T03:45:19;4.30;99.90
33139;DHT22;19501;50.948;5.316;2024-03-08T03:47:46;4.30;99.90
33139;DHT22;19501;50.948;5.316;2024-03-08T03:50:11;4.40;99.90
33139;DHT22;19501;50.948;5.316;2024-03-08T03:52:37;4.30;99.90
33139;DHT22;19501;50.948;5.316;2024-03-08T03:55:04;4.30;99.90
33139;DHT22;19501;50.948;5.316;2024-03-08T03:57:30;4.30;99.90
33139;DHT22;19501;50.948;5.316;2024-03-08T03:59:56;4.30;99.90
33139;DHT22;19501;50.948;5.316;2024-03-08T04:02:24;4.30;99.90
33139;DHT22;19501;50.948;5.316;2024-03-08T04:04:52;4.20;99.90
33139;DHT22;19501;50.948;5.316;2024-03-08T04:07:20;4.10;99.90
33139;DHT22;19501;50.948;5.316;2024-03-08T04:09:46;4.00;99.90
33139;DHT22;19501;50.948;5.316;2024-03-08T04:12:12;4.10;99.90
33139;DHT22;19501;50.948;5.316;2024-03-08T04:14:40;4.10;99.90
33139;DHT22;19501;50.948;5.316;2024-03-08T04:17:06;4.10;99.90
33139;DHT22;19501;50.948;5.316;2024-03-08T04:19:34;4.10;99.90
33139;DHT22;19501;50.948;5.316;2024-03-08T04:22:02;4.10;99.90
33139;DHT22;19501;50.948;5.316;2024-03-08T04:24:28;4.10;99.90
33139;DHT22;19501;50.948;5.316;2024-03-08T04:26:54;4.00;99.90
33139;DHT22;19501;50.948;5.316;2024-03-08T04:29:20;4.00;99.90
33139;DHT22;19501;50.948;5.316;2024-03-08T04:31:45;3.90;99.90
33139;DHT22;19501;50.948;5.316;2024-03-08T04:34:12;3.90;99.90
33139;DHT22;19501;50.948;5.316;2024-03-08T04:36:38;3.90;99.90
33139;DHT22;19501;50.948;5.316;2024-03-08T04:39:04;3.80;99.90
33139;DHT22;19501;50.948;5.316;2024-03-08T04:41:30;3.80;99.90
33139;DHT22;19501;50.948;5.316;2024-03-08T04:43:56;3.80;99.90
33139;DHT22;19501;50.948;5.316;2024-03-08T04:46:23;3.80;99.90
33139;DHT22;19501;50.948;5.316;2024-03-08T04:48:49;3.80;99.90
33139;DHT22;19501;50.948;5.316;2024-03-08T04:51:15;3.90;99.90
33139;DHT22;19501;50.948;5.316;2024-03-08T04:53:43;3.90;99.90
33139;DHT22;19501;50.948;5.316;2024-03-08T04:56:09;3.90;99.90
33139;DHT22;19501;50.948;5.316;2024-03-08T04:58:38;3.90;99.90
33139;DHT22;19501;50.948;5.316;2024-03-08T05:01:03;3.80;99.90
33139;DHT22;19501;50.948;5.316;2024-03-08T05:03:29;3.90;99.90
33139;DHT22;19501;50.948;5.316;2024-03-08T05:05:58;3.90;99.90
33139;DHT22;19501;50.948;5.316;2024-03-08T05:08:23;3.90;99.90
33139;DHT22;19501;50.948;5.316;2024-03-08T05:10:49;3.80;99.90
33139;DHT22;19501;50.948;5.316;2024-03-08T05:13:15;3.80;99.90
33139;DHT22;19501;50.948;5.316;2024-03-08T05:15:44;3.80;99.90
33139;DHT22;19501;50.948;5.316;2024-03-08T05:18:13;3.80;99.90
33139;DHT22;19501;50.948;5.316;2024-03-08T05:20:40;3.80;99.90
33139;DHT22;19501;50.948;5.316;2024-03-08T05:23:07;3.70;99.90
33139;DHT22;19501;50.948;5.316;2024-03-08T05:25:33;3.70;99.90
33139;DHT22;19501;50.948;5.316;2024-03-08T05:27:59;3.70;99.90
33139;DHT22;19501;50.948;5.316;2024-03-08T05:30:25;3.60;99.90
33139;DHT22;19501;50.948;5.316;2024-03-08T05:32:50;3.70;99.90
33139;DHT22;19501;50.948;5.316;2024-03-08T05:35:16;3.70;99.90
33139;DHT22;19501;50.948;5.316;2024-03-08T05:37:42;3.70;99.90
33139;DHT22;19501;50.948;5.316;2024-03-08T05:40:09;3.70;99.90
33139;DHT22;19501;50.948;5.316;2024-03-08T05:42:38;3.70;99.90
33139;DHT22;19501;50.948;5.316;2024-03-08T05:45:06;3.80;99.90
33139;DHT22;19501;50.948;5.316;2024-03-08T05:47:32;3.70;99.90
33139;DHT22;19501;50.948;5.316;2024-03-08T05:49:59;3.70;99.90
33139;DHT22;19501;50.948;5.316;2024-03-08T05:52:27;3.70;99.90
33139;DHT22;19501;50.948;5.316;2024-03-08T05:54:53;3.70;99.90
33139;DHT22;19501;50.948;5.316;2024-03-08T05:57:19;3.70;99.90
33139;DHT22;19501;50.948;5.316;2024-03-08T05:59:44;3.70;99.90
33139;DHT22;19501;50.948;5.316;2024-03-08T06:02:10;3.60;99.90
33139;DHT22;19501;50.948;5.316;2024-03-08T06:04:36;3.70;99.90
33139;DHT22;19501;50.948;5.316;2024-03-08T06:07:02;3.60;99.90
33139;DHT22;19501;50.948;5.316;2024-03-08T06:09:31;3.60;99.90
33139;DHT22;19501;50.948;5.316;2024-03-08T06:11:56;3.70;99.90
33139;DHT22;19501;50.948;5.316;2024-03-08T06:14:22;3.60;99.90
33139;DHT22;19501;50.948;5.316;2024-03-08T06:16:48;3.60;99.90
33139;DHT22;19501;50.948;5.316;2024-03-08T06:19:17;3.50;99.90
33139;DHT22;19501;50.948;5.316;2024-03-08T06:21:43;3.60;99.90
33139;DHT22;19501;50.948;5.316;2024-03-08T06:24:09;3.60;99.90
33139;DHT22;19501;50.948;5.316;2024-03-08T06:26:34;3.60;99.90
33139;DHT22;19501;50.948;5.316;2024-03-08T06:29:00;3.60;99.90
33139;DHT22;19501;50.948;5.316;2024-03-08T06:31:26;3.60;99.90
33139;DHT22;19501;50.948;5.316;2024-03-08T06:33:52;3.70;99.90
33139;DHT22;19501;50.948;5.316;2024-03-08T06:36:19;3.70;99.90
33139;DHT22;19501;50.948;5.316;2024-03-08T06:38:50;3.70;99.90
33139;DHT22;19501;50.948;5.316;2024-03-08T06:41:16;3.70;99.90
33139;DHT22;19501;50.948;5.316;2024-03-08T06:43:43;3.70;99.90
33139;DHT22;19501;50.948;5.316;2024-03-08T06:46:09;3.80;99.90
33139;DHT22;19501;50.948;5.316;2024-03-08T06:48:35;3.80;99.90
33139;DHT22;19501;50.948;5.316;2024-03-08T06:51:03;4.00;99.90
33139;DHT22;19501;50.948;5.316;2024-03-08T06:53:29;3.90;99.90
33139;DHT22;19501;50.948;5.316;2024-03-08T06:55:55;3.90;99.90
33139;DHT22;19501;50.948;5.316;2024-03-08T06:58:21;3.90;99.90
33139;DHT22;19501;50.948;5.316;2024-03-08T07:00:47;3.90;99.90
33139;DHT22;19501;50.948;5.316;2024-03-08T07:03:17;4.00;99.90
33139;DHT22;19501;50.948;5.316;2024-03-08T07:05:43;4.10;99.90
33139;DHT22;19501;50.948;5.316;2024-03-08T07:08:09;4.20;99.90
33139;DHT22;19501;50.948;5.316;2024-03-08T07:10:35;4.20;99.90
33139;DHT22;19501;50.948;5.316;2024-03-08T07:13:03;4.20;99.90
33139;DHT22;19501;50.948;5.316;2024-03-08T07:15:29;4.20;99.90
33139;DHT22;19501;50.948;5.316;2024-03-08T07:17:58;4.30;99.90
33139;DHT22;19501;50.948;5.316;2024-03-08T07:20:25;4.30;99.90
33139;DHT22;19501;50.948;5.316;2024-03-08T07:22:51;4.30;99.90
33139;DHT22;19501;50.948;5.316;2024-03-08T07:25:16;4.30;99.90
33139;DHT22;19501;50.948;5.316;2024-03-08T07:27:56;4.40;99.90
33139;DHT22;19501;50.948;5.316;2024-03-08T07:30:23;4.50;99.90
33139;DHT22;19501;50.948;5.316;2024-03-08T07:33:09;4.60;99.90
33139;DHT22;19501;50.948;5.316;2024-03-08T07:35:38;4.60;99.90
33139;DHT22;19501;50.948;5.316;2024-03-08T07:38:08;4.60;99.90
33139;DHT22;19501;50.948;5.316;2024-03-08T07:40:41;4.70;99.90
33139;DHT22;19501;50.948;5.316;2024-03-08T07:43:10;4.70;99.90
33139;DHT22;19501;50.948;5.316;2024-03-08T07:45:37;4.80;99.90
33139;DHT22;19501;50.948;5.316;2024-03-08T07:48:03;4.80;99.90
33139;DHT22;19501;50.948;5.316;2024-03-08T07:50:29;4.80;99.90
33139;DHT22;19501;50.948;5.316;2024-03-08T07:52:55;4.80;99.90
33139;DHT22;19501;50.948;5.316;2024-03-08T07:55:20;4.90;99.90
33139;DHT22;19501;50.948;5.316;2024-03-08T07:57:49;5.00;99.90
33139;DHT22;19501;50.948;5.316;2024-03-08T08:00:16;5.20;99.90
33139;DHT22;19501;50.948;5.316;2024-03-08T08:02:45;5.20;99.90
33139;DHT22;19501;50.948;5.316;2024-03-08T08:05:11;5.30;99.90
33139;DHT22;19501;50.948;5.316;2024-03-08T08:07:37;5.40;99.90
33139;DHT22;19501;50.948;5.316;2024-03-08T08:10:03;5.40;99.90
33139;DHT22;19501;50.948;5.316;2024-03-08T08:12:31;5.40;99.90
33139;DHT22;19501;50.948;5.316;2024-03-08T08:14:59;5.40;99.90
33139;DHT22;19501;50.948;5.316;2024-03-08T08:17:25;5.50;99.90
33139;DHT22;19501;50.948;5.316;2024-03-08T08:19:51;5.60;99.90
33139;DHT22;19501;50.948;5.316;2024-03-08T08:22:17;5.70;99.90
33139;DHT22;19501;50.948;5.316;2024-03-08T08:24:43;5.70;99.90
33139;DHT22;19501;50.948;5.316;2024-03-08T08:27:09;5.70;99.90
33139;DHT22;19501;50.948;5.316;2024-03-08T08:29:35;5.80;99.90
33139;DHT22;19501;50.948;5.316;2024-03-08T08:32:01;5.70;99.90
33139;DHT22;19501;50.948;5.316;2024-03-08T08:34:27;5.80;99.90
33139;DHT22;19501;50.948;5.316;2024-03-08T08:36:53;6.00;99.90
33139;DHT22;19501;50.948;5.316;2024-03-08T08:39:19;6.00;99.90
33139;DHT22;19501;50.948;5.316;2024-03-08T08:41:48;6.10;99.90
33139;DHT22;19501;50.948;5.316;2024-03-08T08:44:14;6.20;99.90
33139;DHT22;19501;50.948;5.316;2024-03-08T08:46:40;6.20;99.90
33139;DHT22;19501;50.948;5.316;2024-03-08T08:49:06;6.30;99.90
33139;DHT22;19501;50.948;5.316;2024-03-08T08:51:38;6.30;99.90
33139;DHT22;19501;50.948;5.316;2024-03-08T08:54:04;6.30;99.90
33139;DHT22;19501;50.948;5.316;2024-03-08T08:56:31;6.40;99.90
33139;DHT22;19501;50.948;5.316;2024-03-08T08:58:59;6.50;99.90
33139;DHT22;19501;50.948;5.316;2024-03-08T09:01:25;6.50;99.90
33139;DHT22;19501;50.948;5.316;2024-03-08T09:03:51;6.60;99.90
33139;DHT22;19501;50.948;5.316;2024-03-08T09:06:17;6.70;99.90
33139;DHT22;19501;50.948;5.316;2024-03-08T09:08:46;6.80;99.90
33139;DHT22;19501;50.948;5.316;2024-03-08T09:11:11;6.90;99.90
33139;DHT22;19501;50.948;5.316;2024-03-08T09:13:37;7.00;99.90
33139;DHT22;19501;50.948;5.316;2024-03-08T09:16:03;7.00;99.90
33139;DHT22;19501;50.948;5.316;2024-03-08T09:18:31;7.20;99.90
33139;DHT22;19501;50.948;5.316;2024-03-08T09:20:58;7.20;99.90
33139;DHT22;19501;50.948;5.316;2024-03-08T09:23:23;7.20;99.90
33139;DHT22;19501;50.948;5.316;2024-03-08T09:25:58;7.10;99.90
33139;DHT22;19501;50.948;5.316;2024-03-08T09:28:24;7.20;99.90
33139;DHT22;19501;50.948;5.316;2024-03-08T09:30:54;7.30;99.90
33139;DHT22;19501;50.948;5.316;2024-03-08T09:33:20;7.50;99.90
33139;DHT22;19501;50.948;5.316;2024-03-08T09:35:47;7.60;99.90
33139;DHT22;19501;50.948;5.316;2024-03-08T09:38:17;7.60;99.90
33139;DHT22;19501;50.948;5.316;2024-03-08T09:40:42;7.60;99.90
33139;DHT22;19501;50.948;5.316;2024-03-08T09:43:09;7.70;99.90
33139;DHT22;19501;50.948;5.316;2024-03-08T09:45:37;7.80;99.90
33139;DHT22;19501;50.948;5.316;2024-03-08T09:48:11;7.80;99.90
33139;DHT22;19501;50.948;5.316;2024-03-08T09:50:40;7.90;99.90
33139;DHT22;19501;50.948;5.316;2024-03-08T09:53:06;7.90;99.90
33139;DHT22;19501;50.948;5.316;2024-03-08T09:55:40;8.00;99.90
33139;DHT22;19501;50.948;5.316;2024-03-08T09:58:12;8.00;99.90
33139;DHT22;19501;50.948;5.316;2024-03-08T10:00:47;8.10;99.90
33139;DHT22;19501;50.948;5.316;2024-03-08T10:03:13;8.30;99.90
33139;DHT22;19501;50.948;5.316;2024-03-08T10:05:41;8.30;99.90
33139;DHT22;19501;50.948;5.316;2024-03-08T10:08:07;8.30;99.90
33139;DHT22;19501;50.948;5.316;2024-03-08T10:10:34;8.40;99.90
33139;DHT22;19501;50.948;5.316;2024-03-08T10:13:00;8.50;99.90
33139;DHT22;19501;50.948;5.316;2024-03-08T10:15:29;8.50;99.90
33139;DHT22;19501;50.948;5.316;2024-03-08T10:17:58;8.70;99.90
33139;DHT22;19501;50.948;5.316;2024-03-08T10:20:24;8.80;99.90
33139;DHT22;19501;50.948;5.316;2024-03-08T10:22:50;9.00;99.90
33139;DHT22;19501;50.948;5.316;2024-03-08T10:25:16;9.00;99.90
33139;DHT22;19501;50.948;5.316;2024-03-08T10:27:42;9.10;99.90
33139;DHT22;19501;50.948;5.316;2024-03-08T10:30:15;9.10;99.90
33139;DHT22;19501;50.948;5.316;2024-03-08T10:32:45;9.10;99.90
33139;DHT22;19501;50.948;5.316;2024-03-08T10:35:11;9.10;99.90
33139;DHT22;19501;50.948;5.316;2024-03-08T10:37:48;9.30;99.90
33139;DHT22;19501;50.948;5.316;2024-03-08T10:40:19;9.50;99.90
33139;DHT22;19501;50.948;5.316;2024-03-08T10:45:37;9.60;99.90
33139;DHT22;19501;50.948;5.316;2024-03-08T10:51:03;9.80;99.90
33139;DHT22;19501;50.948;5.316;2024-03-08T10:53:29;9.90;99.90
33139;DHT22;19501;50.948;5.316;2024-03-08T10:56:00;10.00;99.90
33139;DHT22;19501;50.948;5.316;2024-03-08T10:58:28;10.10;99.90
33139;DHT22;19501;50.948;5.316;2024-03-08T11:00:55;10.20;99.90
33139;DHT22;19501;50.948;5.316;2024-03-08T11:06:15;10.40;99.90
33139;DHT22;19501;50.948;5.316;2024-03-08T11:08:41;10.50;99.90
33139;DHT22;19501;50.948;5.316;2024-03-08T11:11:24;10.50;99.90
33139;DHT22;19501;50.948;5.316;2024-03-08T11:13:53;10.60;99.90
33139;DHT22;19501;50.948;5.316;2024-03-08T11:19:00;10.80;99.90
33139;DHT22;19501;50.948;5.316;2024-03-08T11:21:30;11.00;99.90
33139;DHT22;19501;50.948;5.316;2024-03-08T11:24:00;11.20;99.90
33139;DHT22;19501;50.948;5.316;2024-03-08T11:26:26;11.40;99.90
33139;DHT22;19501;50.948;5.316;2024-03-08T11:28:51;11.60;99.90
33139;DHT22;19501;50.948;5.316;2024-03-08T11:31:22;11.70;99.90
33139;DHT22;19501;50.948;5.316;2024-03-08T11:33:48;11.70;99.90
33139;DHT22;19501;50.948;5.316;2024-03-08T11:36:24;11.80;99.90
33139;DHT22;19501;50.948;5.316;2024-03-08T11:38:51;11.90;99.90
33139;DHT22;19501;50.948;5.316;2024-03-08T11:41:19;12.30;99.90
33139;DHT22;19501;50.948;5.316;2024-03-08T11:43:46;12.80;99.90
33139;DHT22;19501;50.948;5.316;2024-03-08T11:46:12;13.80;99.90
33139;DHT22;19501;50.948;5.316;2024-03-08T11:48:39;14.50;99.90
33139;DHT22;19501;50.948;5.316;2024-03-08T11:51:11;15.20;99.90
33139;DHT22;19501;50.948;5.316;2024-03-08T11:53:37;16.10;99.90
33139;DHT22;19501;50.948;5.316;2024-03-08T11:56:11;16.20;99.90
33139;DHT22;19501;50.948;5.316;2024-03-08T11:58:40;16.50;99.90
33139;DHT22;19501;50.948;5.316;2024-03-08T12:01:10;17.00;99.90
33139;DHT22;19501;50.948;5.316;2024-03-08T12:03:42;17.60;99.90
33139;DHT22;19501;50.948;5.316;2024-03-08T12:06:09;17.60;99.90
33139;DHT22;19501;50.948;5.316;2024-03-08T12:08:37;18.60;99.90
33139;DHT22;19501;50.948;5.316;2024-03-08T12:11:07;18.80;99.80
33139;DHT22;19501;50.948;5.316;2024-03-08T12:13:34;19.40;99.10
33139;DHT22;19501;50.948;5.316;2024-03-08T12:16:03;19.50;98.20
33139;DHT22;19501;50.948;5.316;2024-03-08T12:18:33;20.00;98.20
33139;DHT22;19501;50.948;5.316;2024-03-08T12:21:11;20.30;98.00
33139;DHT22;19501;50.948;5.316;2024-03-08T12:23:39;19.60;97.20
33139;DHT22;19501;50.948;5.316;2024-03-08T12:26:12;19.90;97.10
33139;DHT22;19501;50.948;5.316;2024-03-08T12:28:40;20.70;96.70
33139;DHT22;19501;50.948;5.316;2024-03-08T12:31:07;21.00;95.80
33139;DHT22;19501;50.948;5.316;2024-03-08T12:33:51;20.50;95.50
33139;DHT22;19501;50.948;5.316;2024-03-08T12:36:18;20.90;95.70
33139;DHT22;19501;50.948;5.316;2024-03-08T12:38:46;21.10;94.90
33139;DHT22;19501;50.948;5.316;2024-03-08T12:41:18;21.90;94.70
33139;DHT22;19501;50.948;5.316;2024-03-08T12:43:45;22.30;94.20
33139;DHT22;19501;50.948;5.316;2024-03-08T12:46:19;22.40;93.70
33139;DHT22;19501;50.948;5.316;2024-03-08T12:48:48;22.00;93.50
33139;DHT22;19501;50.948;5.316;2024-03-08T12:51:15;22.30;93.00
33139;DHT22;19501;50.948;5.316;2024-03-08T12:53:44;22.50;92.80
33139;DHT22;19501;50.948;5.316;2024-03-08T12:56:19;22.80;92.70
33139;DHT22;19501;50.948;5.316;2024-03-08T12:58:46;22.80;92.50
33139;DHT22;19501;50.948;5.316;2024-03-08T13:01:12;22.70;91.90
33139;DHT22;19501;50.948;5.316;2024-03-08T13:03:39;22.60;91.80
33139;DHT22;19501;50.948;5.316;2024-03-08T13:06:06;23.20;92.20
33139;DHT22;19501;50.948;5.316;2024-03-08T13:08:37;23.80;91.20
33139;DHT22;19501;50.948;5.316;2024-03-08T13:11:05;23.80;90.80
33139;DHT22;19501;50.948;5.316;2024-03-08T13:13:33;24.50;90.60
33139;DHT22;19501;50.948;5.316;2024-03-08T13:16:02;24.30;90.10
33139;DHT22;19501;50.948;5.316;2024-03-08T13:18:28;24.60;89.60
33139;DHT22;19501;50.948;5.316;2024-03-08T13:20:54;24.70;88.50
33139;DHT22;19501;50.948;5.316;2024-03-08T13:23:28;24.20;89.00
33139;DHT22;19501;50.948;5.316;2024-03-08T13:25:53;24.30;89.20
33139;DHT22;19501;50.948;5.316;2024-03-08T13:28:20;24.70;89.20
33139;DHT22;19501;50.948;5.316;2024-03-08T13:30:48;23.80;87.10
33139;DHT22;19501;50.948;5.316;2024-03-08T13:33:14;23.20;88.70
33139;DHT22;19501;50.948;5.316;2024-03-08T13:35:40;24.10;88.20
33139;DHT22;19501;50.948;5.316;2024-03-08T13:38:06;24.30;86.70
33139;DHT22;19501;50.948;5.316;2024-03-08T13:40:34;23.80;87.10
33139;DHT22;19501;50.948;5.316;2024-03-08T13:43:00;23.90;86.90
33139;DHT22;19501;50.948;5.316;2024-03-08T13:45:28;23.90;86.10
33139;DHT22;19501;50.948;5.316;2024-03-08T13:47:54;23.20;86.60
33139;DHT22;19501;50.948;5.316;2024-03-08T13:50:20;22.90;87.60
33139;DHT22;19501;50.948;5.316;2024-03-08T13:52:51;23.30;86.70
33139;DHT22;19501;50.948;5.316;2024-03-08T13:55:19;22.70;87.30
33139;DHT22;19501;50.948;5.316;2024-03-08T13:57:45;22.90;87.90
33139;DHT22;19501;50.948;5.316;2024-03-08T14:00:13;23.00;86.70
33139;DHT22;19501;50.948;5.316;2024-03-08T14:02:40;23.10;86.40
33139;DHT22;19501;50.948;5.316;2024-03-08T14:05:09;23.80;86.70
33139;DHT22;19501;50.948;5.316;2024-03-08T14:07:36;23.50;85.70
33139;DHT22;19501;50.948;5.316;2024-03-08T14:10:02;22.90;86.00
33139;DHT22;19501;50.948;5.316;2024-03-08T14:12:31;23.50;85.00
33139;DHT22;19501;50.948;5.316;2024-03-08T14:14:57;22.50;85.50
33139;DHT22;19501;50.948;5.316;2024-03-08T14:17:25;22.20;87.40
33139;DHT22;19501;50.948;5.316;2024-03-08T14:19:52;22.50;85.70
33139;DHT22;19501;50.948;5.316;2024-03-08T14:22:18;22.30;86.90
33139;DHT22;19501;50.948;5.316;2024-03-08T14:24:45;22.30;86.70
33139;DHT22;19501;50.948;5.316;2024-03-08T14:27:11;20.70;86.90
33139;DHT22;19501;50.948;5.316;2024-03-08T14:29:38;20.40;87.80
33139;DHT22;19501;50.948;5.316;2024-03-08T14:32:07;20.10;89.40
33139;DHT22;19501;50.948;5.316;2024-03-08T14:34:33;20.60;88.30
33139;DHT22;19501;50.948;5.316;2024-03-08T14:37:00;20.60;88.30
33139;DHT22;19501;50.948;5.316;2024-03-08T14:39:26;20.90;87.80
33139;DHT22;19501;50.948;5.316;2024-03-08T14:41:55;20.90;88.30
33139;DHT22;19501;50.948;5.316;2024-03-08T14:44:21;20.80;87.70
33139;DHT22;19501;50.948;5.316;2024-03-08T14:46:52;20.80;88.10
33139;DHT22;19501;50.948;5.316;2024-03-08T14:49:17;21.10;88.40
33139;DHT22;19501;50.948;5.316;2024-03-08T14:51:44;21.20;87.50
33139;DHT22;19501;50.948;5.316;2024-03-08T14:54:10;21.50;87.80
33139;DHT22;19501;50.948;5.316;2024-03-08T14:56:39;21.70;86.90
33139;DHT22;19501;50.948;5.316;2024-03-08T14:59:08;21.20;86.50
33139;DHT22;19501;50.948;5.316;2024-03-08T15:01:35;20.70;87.10
33139;DHT22;19501;50.948;5.316;2024-03-08T15:04:04;20.90;87.70
33139;DHT22;19501;50.948;5.316;2024-03-08T15:06:37;20.90;87.90
33139;DHT22;19501;50.948;5.316;2024-03-08T15:09:04;20.80;87.10
33139;DHT22;19501;50.948;5.316;2024-03-08T15:11:40;20.50;87.00
33139;DHT22;19501;50.948;5.316;2024-03-08T15:14:08;20.40;88.00
33139;DHT22;19501;50.948;5.316;2024-03-08T15:16:37;19.90;88.40
33139;DHT22;19501;50.948;5.316;2024-03-08T15:19:05;20.10;89.50
33139;DHT22;19501;50.948;5.316;2024-03-08T15:21:31;20.00;87.90
33139;DHT22;19501;50.948;5.316;2024-03-08T15:23:56;20.00;87.60
33139;DHT22;19501;50.948;5.316;2024-03-08T15:26:22;19.40;88.50
33139;DHT22;19501;50.948;5.316;2024-03-08T15:28:48;19.30;88.70
33139;DHT22;19501;50.948;5.316;2024-03-08T15:31:17;19.20;89.50
33139;DHT22;19501;50.948;5.316;2024-03-08T15:33:46;19.10;88.70
33139;DHT22;19501;50.948;5.316;2024-03-08T15:36:17;19.00;89.40
33139;DHT22;19501;50.948;5.316;2024-03-08T15:38:46;19.00;88.90
33139;DHT22;19501;50.948;5.316;2024-03-08T15:41:13;18.80;88.00
33139;DHT22;19501;50.948;5.316;2024-03-08T15:43:40;18.40;89.20
33139;DHT22;19501;50.948;5.316;2024-03-08T15:46:06;18.40;89.30
33139;DHT22;19501;50.948;5.316;2024-03-08T15:48:33;18.40;89.00
33139;DHT22;19501;50.948;5.316;2024-03-08T15:51:03;18.70;89.20
33139;DHT22;19501;50.948;5.316;2024-03-08T15:53:31;18.40;89.00
33139;DHT22;19501;50.948;5.316;2024-03-08T15:55:58;18.40;89.60